Terminal Aerodrome Forecast
Issued by NWS Sioux Falls, SD

Home | Current Version | Previous Version | Graphics & Text | Print | Product List | Glossary Off
Versions: 1 2 3 4 5 6 7 8 9 10 11 12 13 14 15 16 17 18 19 20

159
FTUS43 KFSD 260816 AAA
TAFFSD
TAF AMD
KFSD 260816Z 2608/2706 32005KT P6SM BKN025
     FM261400 07010KT P6SM BKN090
     FM262000 08015G23KT P6SM BKN050
     FM270300 07019G26KT P6SM SHRA OVC020=

USA.gov is the U.S. government's official web portal to all federal, state and local government web resources and services.